sensor_id;sensor_type;location;lat;lon;timestamp;temperature;humidity
71096;DHT22;58753;49.440;11.126;2023-02-12T00:00:04;4.00;85.63
71096;DHT22;58753;49.440;11.126;2023-02-12T00:02:29;3.99;85.61
71096;DHT22;58753;49.440;11.126;2023-02-12T00:04:55;3.93;85.60
71096;DHT22;58753;49.440;11.126;2023-02-12T00:07:20;3.92;85.60
71096;DHT22;58753;49.440;11.126;2023-02-12T00:09:45;3.92;85.79
71096;DHT22;58753;49.440;11.126;2023-02-12T00:12:11;3.92;85.72
71096;DHT22;58753;49.440;11.126;2023-02-12T00:14:36;3.89;85.73
71096;DHT22;58753;49.440;11.126;2023-02-12T00:17:02;3.89;85.78
71096;DHT22;58753;49.440;11.126;2023-02-12T00:19:28;3.89;85.94
71096;DHT22;58753;49.440;11.126;2023-02-12T00:21:54;3.86;85.92
71096;DHT22;58753;49.440;11.126;2023-02-12T00:24:19;3.87;85.92
71096;DHT22;58753;49.440;11.126;2023-02-12T00:26:45;3.83;85.93
71096;DHT22;58753;49.440;11.126;2023-02-12T00:29:12;3.82;85.99
71096;DHT22;58753;49.440;11.126;2023-02-12T00:31:38;3.80;86.00
71096;DHT22;58753;49.440;11.126;2023-02-12T00:34:04;3.76;86.01
71096;DHT22;58753;49.440;11.126;2023-02-12T00:36:30;3.76;86.09
71096;DHT22;58753;49.440;11.126;2023-02-12T00:38:57;3.79;86.13
71096;DHT22;58753;49.440;11.126;2023-02-12T00:41:23;3.78;86.10
71096;DHT22;58753;49.440;11.126;2023-02-12T00:43:49;3.76;86.14
71096;DHT22;58753;49.440;11.126;2023-02-12T00:46:14;3.75;86.10
71096;DHT22;58753;49.440;11.126;2023-02-12T00:48:40;3.70;85.99
71096;DHT22;58753;49.440;11.126;2023-02-12T00:51:05;3.69;86.13
71096;DHT22;58753;49.440;11.126;2023-02-12T00:53:31;3.70;86.28
71096;DHT22;58753;49.440;11.126;2023-02-12T00:55:57;3.68;86.18
71096;DHT22;58753;49.440;11.126;2023-02-12T00:58:23;3.68;86.23
71096;DHT22;58753;49.440;11.126;2023-02-12T01:00:48;3.66;86.31
71096;DHT22;58753;49.440;11.126;2023-02-12T01:03:14;3.66;86.37
71096;DHT22;58753;49.440;11.126;2023-02-12T01:05:40;3.68;86.36
71096;DHT22;58753;49.440;11.126;2023-02-12T01:08:05;3.65;86.32
71096;DHT22;58753;49.440;11.126;2023-02-12T01:10:31;3.63;86.35
71096;DHT22;58753;49.440;11.126;2023-02-12T01:12:56;3.68;86.46
71096;DHT22;58753;49.440;11.126;2023-02-12T01:15:22;3.68;86.46
71096;DHT22;58753;49.440;11.126;2023-02-12T01:17:50;3.65;86.34
71096;DHT22;58753;49.440;11.126;2023-02-12T01:20:17;3.62;86.39
71096;DHT22;58753;49.440;11.126;2023-02-12T01:22:43;3.59;86.39
71096;DHT22;58753;49.440;11.126;2023-02-12T01:25:08;3.58;86.41
71096;DHT22;58753;49.440;11.126;2023-02-12T01:27:35;3.58;86.49
71096;DHT22;58753;49.440;11.126;2023-02-12T01:30:01;3.59;86.48
71096;DHT22;58753;49.440;11.126;2023-02-12T01:32:26;3.58;86.46
71096;DHT22;58753;49.440;11.126;2023-02-12T01:34:52;3.54;86.46
71096;DHT22;58753;49.440;11.126;2023-02-12T01:37:17;3.54;86.55
71096;DHT22;58753;49.440;11.126;2023-02-12T01:39:43;3.55;86.60
71096;DHT22;58753;49.440;11.126;2023-02-12T01:42:13;3.54;86.59
71096;DHT22;58753;49.440;11.126;2023-02-12T01:47:26;3.52;86.57
71096;DHT22;58753;49.440;11.126;2023-02-12T01:49:52;3.52;86.63
71096;DHT22;58753;49.440;11.126;2023-02-12T01:52:27;3.49;86.56
71096;DHT22;58753;49.440;11.126;2023-02-12T01:54:57;3.46;86.56
71096;DHT22;58753;49.440;11.126;2023-02-12T01:57:25;3.46;86.56
71096;DHT22;58753;49.440;11.126;2023-02-12T01:59:53;3.42;86.57
71096;DHT22;58753;49.440;11.126;2023-02-12T02:02:20;3.38;86.68
71096;DHT22;58753;49.440;11.126;2023-02-12T02:04:49;3.42;86.66
71096;DHT22;58753;49.440;11.126;2023-02-12T02:07:15;3.40;86.69
71096;DHT22;58753;49.440;11.126;2023-02-12T02:09:42;3.39;86.69
71096;DHT22;58753;49.440;11.126;2023-02-12T02:12:07;3.39;86.74
71096;DHT22;58753;49.440;11.126;2023-02-12T02:14:56;3.36;86.75
71096;DHT22;58753;49.440;11.126;2023-02-12T02:28:54;3.32;86.92
71096;DHT22;58753;49.440;11.126;2023-02-12T02:39:37;3.31;86.89
71096;DHT22;58753;49.440;11.126;2023-02-12T02:42:27;3.25;86.81
71096;DHT22;58753;49.440;11.126;2023-02-12T02:45:17;3.22;86.84
71096;DHT22;58753;49.440;11.126;2023-02-12T02:47:49;3.22;86.92
71096;DHT22;58753;49.440;11.126;2023-02-12T02:50:22;3.21;86.97
71096;DHT22;58753;49.440;11.126;2023-02-12T02:52:53;3.22;86.99
71096;DHT22;58753;49.440;11.126;2023-02-12T02:55:23;3.18;86.96
71096;DHT22;58753;49.440;11.126;2023-02-12T02:58:06;3.19;86.97
71096;DHT22;58753;49.440;11.126;2023-02-12T03:00:37;3.17;86.96
71096;DHT22;58753;49.440;11.126;2023-02-12T03:03:12;3.17;87.01
71096;DHT22;58753;49.440;11.126;2023-02-12T03:05:43;3.17;86.95
71096;DHT22;58753;49.440;11.126;2023-02-12T03:08:24;3.17;86.95
71096;DHT22;58753;49.440;11.126;2023-02-12T03:10:57;3.09;86.92
71096;DHT22;58753;49.440;11.126;2023-02-12T03:13:35;3.07;86.88
71096;DHT22;58753;49.440;11.126;2023-02-12T03:16:23;3.08;86.93
71096;DHT22;58753;49.440;11.126;2023-02-12T03:18:58;3.04;86.94
71096;DHT22;58753;49.440;11.126;2023-02-12T03:21:38;3.07;86.99
71096;DHT22;58753;49.440;11.126;2023-02-12T03:24:53;3.04;87.00
71096;DHT22;58753;49.440;11.126;2023-02-12T03:27:03;3.04;86.98
71096;DHT22;58753;49.440;11.126;2023-02-12T03:29:31;3.01;86.98
71096;DHT22;58753;49.440;11.126;2023-02-12T03:35:01;3.03;87.06
71096;DHT22;58753;49.440;11.126;2023-02-12T03:37:36;3.00;87.02
71096;DHT22;58753;49.440;11.126;2023-02-12T03:40:08;3.01;87.01
71096;DHT22;58753;49.440;11.126;2023-02-12T03:48:08;2.93;87.05
71096;DHT22;58753;49.440;11.126;2023-02-12T03:53:12;2.91;86.96
71096;DHT22;58753;49.440;11.126;2023-02-12T03:55:41;2.87;87.00
71096;DHT22;58753;49.440;11.126;2023-02-12T03:58:11;2.85;87.00
71096;DHT22;58753;49.440;11.126;2023-02-12T04:00:38;2.83;87.05
71096;DHT22;58753;49.440;11.126;2023-02-12T04:03:06;2.83;87.08
71096;DHT22;58753;49.440;11.126;2023-02-12T04:05:31;2.83;87.09
71096;DHT22;58753;49.440;11.126;2023-02-12T04:07:57;2.81;87.11
71096;DHT22;58753;49.440;11.126;2023-02-12T04:10:30;2.79;87.11
71096;DHT22;58753;49.440;11.126;2023-02-12T04:13:32;2.76;87.19
71096;DHT22;58753;49.440;11.126;2023-02-12T04:18:47;2.76;87.30
71096;DHT22;58753;49.440;11.126;2023-02-12T04:21:50;2.74;87.32
71096;DHT22;58753;49.440;11.126;2023-02-12T04:24:26;2.68;87.33
71096;DHT22;58753;49.440;11.126;2023-02-12T04:27:14;2.67;87.40
71096;DHT22;58753;49.440;11.126;2023-02-12T04:37:54;2.63;87.69
71096;DHT22;58753;49.440;11.126;2023-02-12T04:40:21;2.61;87.71
71096;DHT22;58753;49.440;11.126;2023-02-12T04:42:49;2.61;87.78
71096;DHT22;58753;49.440;11.126;2023-02-12T04:45:21;2.60;87.83
71096;DHT22;58753;49.440;11.126;2023-02-12T04:47:48;2.60;87.83
71096;DHT22;58753;49.440;11.126;2023-02-12T04:50:13;2.57;87.90
71096;DHT22;58753;49.440;11.126;2023-02-12T04:52:39;2.56;87.90
71096;DHT22;58753;49.440;11.126;2023-02-12T04:55:04;2.53;87.97
71096;DHT22;58753;49.440;11.126;2023-02-12T04:57:30;2.52;88.12
71096;DHT22;58753;49.440;11.126;2023-02-12T04:59:55;2.49;88.15
71096;DHT22;58753;49.440;11.126;2023-02-12T05:02:21;2.50;88.19
71096;DHT22;58753;49.440;11.126;2023-02-12T05:04:48;2.50;88.27
71096;DHT22;58753;49.440;11.126;2023-02-12T05:07:13;2.47;88.31
71096;DHT22;58753;49.440;11.126;2023-02-12T05:09:39;2.46;88.39
71096;DHT22;58753;49.440;11.126;2023-02-12T05:12:04;2.44;88.41
71096;DHT22;58753;49.440;11.126;2023-02-12T05:14:29;2.43;88.45
71096;DHT22;58753;49.440;11.126;2023-02-12T05:16:55;2.44;88.51
71096;DHT22;58753;49.440;11.126;2023-02-12T05:19:20;2.43;88.56
71096;DHT22;58753;49.440;11.126;2023-02-12T05:21:49;2.42;88.62
71096;DHT22;58753;49.440;11.126;2023-02-12T05:24:14;2.43;88.65
71096;DHT22;58753;49.440;11.126;2023-02-12T05:26:39;2.42;88.68
71096;DHT22;58753;49.440;11.126;2023-02-12T05:29:05;2.40;88.71
71096;DHT22;58753;49.440;11.126;2023-02-12T05:31:30;2.39;88.75
71096;DHT22;58753;49.440;11.126;2023-02-12T05:33:56;2.39;88.80
71096;DHT22;58753;49.440;11.126;2023-02-12T05:36:22;2.37;88.81
71096;DHT22;58753;49.440;11.126;2023-02-12T05:38:48;2.33;88.84
71096;DHT22;58753;49.440;11.126;2023-02-12T05:41:19;2.34;88.90
71096;DHT22;58753;49.440;11.126;2023-02-12T05:43:46;2.30;88.98
71096;DHT22;58753;49.440;11.126;2023-02-12T05:46:12;2.29;89.05
71096;DHT22;58753;49.440;11.126;2023-02-12T05:48:38;2.28;89.09
71096;DHT22;58753;49.440;11.126;2023-02-12T05:51:06;2.29;89.16
71096;DHT22;58753;49.440;11.126;2023-02-12T05:53:32;2.26;89.20
71096;DHT22;58753;49.440;11.126;2023-02-12T05:56:19;2.28;89.23
71096;DHT22;58753;49.440;11.126;2023-02-12T05:58:47;2.29;89.30
71096;DHT22;58753;49.440;11.126;2023-02-12T06:01:14;2.29;89.34
71096;DHT22;58753;49.440;11.126;2023-02-12T06:03:39;2.28;89.37
71096;DHT22;58753;49.440;11.126;2023-02-12T06:06:05;2.29;89.42
71096;DHT22;58753;49.440;11.126;2023-02-12T06:08:31;2.28;89.44
71096;DHT22;58753;49.440;11.126;2023-02-12T06:11:01;2.26;89.49
71096;DHT22;58753;49.440;11.126;2023-02-12T06:13:28;2.30;89.55
71096;DHT22;58753;49.440;11.126;2023-02-12T06:15:53;2.29;89.61
71096;DHT22;58753;49.440;11.126;2023-02-12T06:18:19;2.30;89.57
71096;DHT22;58753;49.440;11.126;2023-02-12T06:20:44;2.26;89.62
71096;DHT22;58753;49.440;11.126;2023-02-12T06:23:09;2.28;89.67
71096;DHT22;58753;49.440;11.126;2023-02-12T06:25:35;2.28;89.67
71096;DHT22;58753;49.440;11.126;2023-02-12T06:28:00;2.29;89.68
71096;DHT22;58753;49.440;11.126;2023-02-12T06:30:25;2.25;89.72
71096;DHT22;58753;49.440;11.126;2023-02-12T06:32:51;2.26;89.72
71096;DHT22;58753;49.440;11.126;2023-02-12T06:35:16;2.28;89.79
71096;DHT22;58753;49.440;11.126;2023-02-12T06:37:41;2.29;89.80
71096;DHT22;58753;49.440;11.126;2023-02-12T06:40:07;2.32;89.85
71096;DHT22;58753;49.440;11.126;2023-02-12T06:42:33;2.32;89.85
71096;DHT22;58753;49.440;11.126;2023-02-12T06:44:58;2.30;89.86
71096;DHT22;58753;49.440;11.126;2023-02-12T06:47:24;2.34;89.82
71096;DHT22;58753;49.440;11.126;2023-02-12T06:49:49;2.33;89.87
71096;DHT22;58753;49.440;11.126;2023-02-12T06:52:14;2.32;89.89
71096;DHT22;58753;49.440;11.126;2023-02-12T06:54:40;2.33;89.88
71096;DHT22;58753;49.440;11.126;2023-02-12T06:57:05;2.36;89.93
71096;DHT22;58753;49.440;11.126;2023-02-12T06:59:30;2.39;89.96
71096;DHT22;58753;49.440;11.126;2023-02-12T07:01:56;2.39;89.97
71096;DHT22;58753;49.440;11.126;2023-02-12T07:04:21;2.40;90.01
71096;DHT22;58753;49.440;11.126;2023-02-12T07:06:47;2.47;90.00
71096;DHT22;58753;49.440;11.126;2023-02-12T07:09:12;2.47;90.01
71096;DHT22;58753;49.440;11.126;2023-02-12T07:11:38;2.49;90.04
71096;DHT22;58753;49.440;11.126;2023-02-12T07:14:04;2.52;90.04
71096;DHT22;58753;49.440;11.126;2023-02-12T07:16:30;2.54;90.06
71096;DHT22;58753;49.440;11.126;2023-02-12T07:18:55;2.58;90.11
71096;DHT22;58753;49.440;11.126;2023-02-12T07:21:20;2.64;90.07
71096;DHT22;58753;49.440;11.126;2023-02-12T07:23:48;2.67;90.09
71096;DHT22;58753;49.440;11.126;2023-02-12T07:26:14;2.73;90.05
71096;DHT22;58753;49.440;11.126;2023-02-12T07:28:40;2.73;90.04
71096;DHT22;58753;49.440;11.126;2023-02-12T07:31:11;2.72;90.01
71096;DHT22;58753;49.440;11.126;2023-02-12T07:33:37;2.76;90.05
71096;DHT22;58753;49.440;11.126;2023-02-12T07:36:05;2.80;90.10
71096;DHT22;58753;49.440;11.126;2023-02-12T07:38:31;2.85;90.12
71096;DHT22;58753;49.440;11.126;2023-02-12T07:41:05;2.90;90.18
71096;DHT22;58753;49.440;11.126;2023-02-12T07:43:31;2.95;90.16
71096;DHT22;58753;49.440;11.126;2023-02-12T07:46:05;3.00;90.17
71096;DHT22;58753;49.440;11.126;2023-02-12T07:48:30;3.05;90.17
71096;DHT22;58753;49.440;11.126;2023-02-12T07:50:56;3.09;90.22
71096;DHT22;58753;49.440;11.126;2023-02-12T07:53:21;3.18;90.34
71096;DHT22;58753;49.440;11.126;2023-02-12T07:55:47;3.27;90.34
71096;DHT22;58753;49.440;11.126;2023-02-12T07:58:12;3.35;90.44
71096;DHT22;58753;49.440;11.126;2023-02-12T08:00:37;3.45;90.43
71096;DHT22;58753;49.440;11.126;2023-02-12T08:03:03;3.46;90.37
71096;DHT22;58753;49.440;11.126;2023-02-12T08:05:28;3.51;90.26
71096;DHT22;58753;49.440;11.126;2023-02-12T08:07:53;3.52;90.27
71096;DHT22;58753;49.440;11.126;2023-02-12T08:10:19;3.54;90.25
71096;DHT22;58753;49.440;11.126;2023-02-12T08:12:46;3.59;90.35
71096;DHT22;58753;49.440;11.126;2023-02-12T08:15:11;3.66;90.49
71096;DHT22;58753;49.440;11.126;2023-02-12T08:17:37;3.80;90.64
71096;DHT22;58753;49.440;11.126;2023-02-12T08:20:03;3.96;90.70
71096;DHT22;58753;49.440;11.126;2023-02-12T08:22:29;4.11;90.63
71096;DHT22;58753;49.440;11.126;2023-02-12T08:24:54;4.21;90.48
71096;DHT22;58753;49.440;11.126;2023-02-12T08:27:20;4.24;90.31
71096;DHT22;58753;49.440;11.126;2023-02-12T08:29:45;4.24;90.19
71096;DHT22;58753;49.440;11.126;2023-02-12T08:32:10;4.27;90.21
71096;DHT22;58753;49.440;11.126;2023-02-12T08:34:38;4.31;90.24
71096;DHT22;58753;49.440;11.126;2023-02-12T08:37:05;4.41;90.22
71096;DHT22;58753;49.440;11.126;2023-02-12T08:39:30;4.50;90.20
71096;DHT22;58753;49.440;11.126;2023-02-12T08:41:57;4.55;90.19
71096;DHT22;58753;49.440;11.126;2023-02-12T08:44:23;4.58;90.02
71096;DHT22;58753;49.440;11.126;2023-02-12T08:46:50;4.61;89.94
71096;DHT22;58753;49.440;11.126;2023-02-12T08:49:21;4.67;90.06
71096;DHT22;58753;49.440;11.126;2023-02-12T08:51:50;4.81;90.27
71096;DHT22;58753;49.440;11.126;2023-02-12T08:54:18;4.99;90.24
71096;DHT22;58753;49.440;11.126;2023-02-12T08:56:44;4.96;89.63
71096;DHT22;58753;49.440;11.126;2023-02-12T08:59:11;5.02;89.79
71096;DHT22;58753;49.440;11.126;2023-02-12T09:01:38;5.08;89.80
71096;DHT22;58753;49.440;11.126;2023-02-12T09:04:05;5.18;89.78
71096;DHT22;58753;49.440;11.126;2023-02-12T09:06:32;5.26;89.59
71096;DHT22;58753;49.440;11.126;2023-02-12T09:08:57;5.26;89.30
71096;DHT22;58753;49.440;11.126;2023-02-12T09:11:25;5.29;89.38
71096;DHT22;58753;49.440;11.126;2023-02-12T09:13:56;5.39;89.45
71096;DHT22;58753;49.440;11.126;2023-02-12T09:16:22;5.32;88.94
71096;DHT22;58753;49.440;11.126;2023-02-12T09:18:47;5.32;89.12
71096;DHT22;58753;49.440;11.126;2023-02-12T09:21:14;5.36;88.88
71096;DHT22;58753;49.440;11.126;2023-02-12T09:23:41;5.37;88.95
71096;DHT22;58753;49.440;11.126;2023-02-12T09:26:09;5.37;88.85
71096;DHT22;58753;49.440;11.126;2023-02-12T09:28:35;5.37;88.96
71096;DHT22;58753;49.440;11.126;2023-02-12T09:31:13;5.33;88.74
71096;DHT22;58753;49.440;11.126;2023-02-12T09:33:39;5.33;88.82
71096;DHT22;58753;49.440;11.126;2023-02-12T09:36:11;5.29;88.78
71096;DHT22;58753;49.440;11.126;2023-02-12T09:38:37;5.28;88.81
71096;DHT22;58753;49.440;11.126;2023-02-12T09:43:52;5.32;89.10
71096;DHT22;58753;49.440;11.126;2023-02-12T09:46:41;5.54;89.37
71096;DHT22;58753;49.440;11.126;2023-02-12T09:51:50;5.86;89.18
71096;DHT22;58753;49.440;11.126;2023-02-12T09:54:20;6.00;88.88
71096;DHT22;58753;49.440;11.126;2023-02-12T09:56:51;6.04;88.47
71096;DHT22;58753;49.440;11.126;2023-02-12T09:59:40;6.07;88.12
71096;DHT22;58753;49.440;11.126;2023-02-12T10:02:18;6.10;87.79
71096;DHT22;58753;49.440;11.126;2023-02-12T10:04:47;6.18;87.74
71096;DHT22;58753;49.440;11.126;2023-02-12T10:07:18;6.24;87.89
71096;DHT22;58753;49.440;11.126;2023-02-12T10:11:00;6.28;87.66
71096;DHT22;58753;49.440;11.126;2023-02-12T10:13:00;6.38;87.57
71096;DHT22;58753;49.440;11.126;2023-02-12T10:15:42;6.42;87.49
71096;DHT22;58753;49.440;11.126;2023-02-12T10:18:39;6.45;87.38
71096;DHT22;58753;49.440;11.126;2023-02-12T10:26:49;6.71;87.01
71096;DHT22;58753;49.440;11.126;2023-02-12T10:29:22;6.77;86.89
71096;DHT22;58753;49.440;11.126;2023-02-12T10:32:06;6.69;86.13
71096;DHT22;58753;49.440;11.126;2023-02-12T10:34:34;6.66;86.49
71096;DHT22;58753;49.440;11.126;2023-02-12T10:37:25;6.66;86.43
71096;DHT22;58753;49.440;11.126;2023-02-12T10:40:03;6.50;85.58
71096;DHT22;58753;49.440;11.126;2023-02-12T10:42:40;6.44;85.75
71096;DHT22;58753;49.440;11.126;2023-02-12T10:45:13;6.42;86.17
71096;DHT22;58753;49.440;11.126;2023-02-12T10:47:38;6.49;86.31
71096;DHT22;58753;49.440;11.126;2023-02-12T10:50:16;6.59;86.33
71096;DHT22;58753;49.440;11.126;2023-02-12T10:52:52;6.63;86.05
71096;DHT22;58753;49.440;11.126;2023-02-12T10:55:30;6.68;86.03
71096;DHT22;58753;49.440;11.126;2023-02-12T10:57:57;6.69;85.74
71096;DHT22;58753;49.440;11.126;2023-02-12T11:05:28;6.72;85.47
71096;DHT22;58753;49.440;11.126;2023-02-12T11:07:54;6.73;85.47
71096;DHT22;58753;49.440;11.126;2023-02-12T11:10:32;6.73;85.31
71096;DHT22;58753;49.440;11.126;2023-02-12T11:13:01;6.69;85.22
71096;DHT22;58753;49.440;11.126;2023-02-12T11:15:36;6.76;85.51
71096;DHT22;58753;49.440;11.126;2023-02-12T11:18:09;6.82;85.40
71096;DHT22;58753;49.440;11.126;2023-02-12T11:20:49;6.77;84.78
71096;DHT22;58753;49.440;11.126;2023-02-12T11:28:59;6.76;85.05
71096;DHT22;58753;49.440;11.126;2023-02-12T11:31:30;6.86;85.04
71096;DHT22;58753;49.440;11.126;2023-02-12T11:34:06;6.85;84.69
71096;DHT22;58753;49.440;11.126;2023-02-12T11:36:36;6.72;84.53
71096;DHT22;58753;49.440;11.126;2023-02-12T11:39:02;6.72;84.55
71096;DHT22;58753;49.440;11.126;2023-02-12T11:43:59;6.76;85.01
71096;DHT22;58753;49.440;11.126;2023-02-12T11:46:26;6.83;84.50
71096;DHT22;58753;49.440;11.126;2023-02-12T11:48:53;6.77;84.33
71096;DHT22;58753;49.440;11.126;2023-02-12T11:51:28;6.71;84.48
71096;DHT22;58753;49.440;11.126;2023-02-12T11:53:56;6.69;84.52
71096;DHT22;58753;49.440;11.126;2023-02-12T11:56:22;6.66;84.56
71096;DHT22;58753;49.440;11.126;2023-02-12T11:58:49;6.68;84.61
71096;DHT22;58753;49.440;11.126;2023-02-12T12:03:52;6.80;84.47
71096;DHT22;58753;49.440;11.126;2023-02-12T12:08:49;6.80;84.25
71096;DHT22;58753;49.440;11.126;2023-02-12T12:11:21;6.83;84.18
71096;DHT22;58753;49.440;11.126;2023-02-12T12:13:56;6.82;84.12
71096;DHT22;58753;49.440;11.126;2023-02-12T12:16:31;6.89;84.29
71096;DHT22;58753;49.440;11.126;2023-02-12T12:19:31;6.92;83.98
71096;DHT22;58753;49.440;11.126;2023-02-12T12:25:05;7.14;84.18
71096;DHT22;58753;49.440;11.126;2023-02-12T12:33:18;7.74;83.50
71096;DHT22;58753;49.440;11.126;2023-02-12T12:35:58;7.98;83.44
71096;DHT22;58753;49.440;11.126;2023-02-12T12:39:00;8.14;82.54
71096;DHT22;58753;49.440;11.126;2023-02-12T12:41:55;8.21;82.19
71096;DHT22;58753;49.440;11.126;2023-02-12T12:58:08;8.19;80.75
71096;DHT22;58753;49.440;11.126;2023-02-12T13:00:40;8.29;80.88
71096;DHT22;58753;49.440;11.126;2023-02-12T13:10:56;8.53;79.68
71096;DHT22;58753;49.440;11.126;2023-02-12T13:13:38;8.53;78.79
71096;DHT22;58753;49.440;11.126;2023-02-12T13:19:51;8.61;78.77
71096;DHT22;58753;49.440;11.126;2023-02-12T13:22:03;8.63;78.33
71096;DHT22;58753;49.440;11.126;2023-02-12T13:24:34;8.71;78.37
71096;DHT22;58753;49.440;11.126;2023-02-12T13:27:11;8.81;78.21
71096;DHT22;58753;49.440;11.126;2023-02-12T13:29:51;8.87;77.72
71096;DHT22;58753;49.440;11.126;2023-02-12T13:32:31;8.92;77.67
71096;DHT22;58753;49.440;11.126;2023-02-12T13:34:59;8.88;77.40
71096;DHT22;58753;49.440;11.126;2023-02-12T13:37:32;8.87;76.85
71096;DHT22;58753;49.440;11.126;2023-02-12T13:40:03;8.84;77.10
71096;DHT22;58753;49.440;11.126;2023-02-12T13:45:29;8.87;76.73
71096;DHT22;58753;49.440;11.126;2023-02-12T13:53:11;8.88;76.94
71096;DHT22;58753;49.440;11.126;2023-02-12T13:56:04;8.98;76.94
71096;DHT22;58753;49.440;11.126;2023-02-12T14:03:29;9.17;76.37
71096;DHT22;58753;49.440;11.126;2023-02-12T14:06:16;9.28;76.28
71096;DHT22;58753;49.440;11.126;2023-02-12T14:08:47;9.36;76.28
71096;DHT22;58753;49.440;11.126;2023-02-12T14:11:16;9.45;75.93
71096;DHT22;58753;49.440;11.126;2023-02-12T14:19:35;9.10;75.40
71096;DHT22;58753;49.440;11.126;2023-02-12T14:22:09;9.04;75.28
71096;DHT22;58753;49.440;11.126;2023-02-12T14:27:02;8.67;74.97
71096;DHT22;58753;49.440;11.126;2023-02-12T14:29:28;8.63;75.55
71096;DHT22;58753;49.440;11.126;2023-02-12T14:31:54;8.73;75.52
71096;DHT22;58753;49.440;11.126;2023-02-12T14:36:46;9.10;74.94
71096;DHT22;58753;49.440;11.126;2023-02-12T14:44:56;9.50;74.34
71096;DHT22;58753;49.440;11.126;2023-02-12T14:49:56;10.02;73.70
71096;DHT22;58753;49.440;11.126;2023-02-12T14:52:26;9.96;72.56
71096;DHT22;58753;49.440;11.126;2023-02-12T14:54:56;9.93;72.65
71096;DHT22;58753;49.440;11.126;2023-02-12T15:02:50;9.43;72.77
71096;DHT22;58753;49.440;11.126;2023-02-12T15:05:29;9.22;72.80
71096;DHT22;58753;49.440;11.126;2023-02-12T15:07:59;9.08;73.29
71096;DHT22;58753;49.440;11.126;2023-02-12T15:10:29;8.97;73.39
71096;DHT22;58753;49.440;11.126;2023-02-12T15:13:24;8.89;73.60
71096;DHT22;58753;49.440;11.126;2023-02-12T15:18:48;8.78;74.29
71096;DHT22;58753;49.440;11.126;2023-02-12T15:21:18;8.71;74.40
71096;DHT22;58753;49.440;11.126;2023-02-12T15:23:47;8.63;74.56
71096;DHT22;58753;49.440;11.126;2023-02-12T15:26:18;8.56;74.60
71096;DHT22;58753;49.440;11.126;2023-02-12T15:28:49;8.47;74.72
71096;DHT22;58753;49.440;11.126;2023-02-12T15:31:18;8.40;75.01
71096;DHT22;58753;49.440;11.126;2023-02-12T15:33:49;8.32;75.32
71096;DHT22;58753;49.440;11.126;2023-02-12T15:36:21;8.25;75.38
71096;DHT22;58753;49.440;11.126;2023-02-12T15:38:51;8.19;75.58
71096;DHT22;58753;49.440;11.126;2023-02-12T15:41:26;8.10;75.79
71096;DHT22;58753;49.440;11.126;2023-02-12T15:43:52;8.07;76.01
71096;DHT22;58753;49.440;11.126;2023-02-12T15:46:18;7.98;76.19
71096;DHT22;58753;49.440;11.126;2023-02-12T15:48:43;7.89;76.41
71096;DHT22;58753;49.440;11.126;2023-02-12T15:51:34;7.85;76.87
71096;DHT22;58753;49.440;11.126;2023-02-12T15:54:04;7.82;77.15
71096;DHT22;58753;49.440;11.126;2023-02-12T15:56:31;7.77;77.30
71096;DHT22;58753;49.440;11.126;2023-02-12T15:58:59;7.71;77.54
71096;DHT22;58753;49.440;11.126;2023-02-12T16:01:30;7.62;77.68
71096;DHT22;58753;49.440;11.126;2023-02-12T16:04:01;7.57;77.83
71096;DHT22;58753;49.440;11.126;2023-02-12T16:06:29;7.51;78.08
71096;DHT22;58753;49.440;11.126;2023-02-12T16:09:17;7.44;78.28
71096;DHT22;58753;49.440;11.126;2023-02-12T16:11:47;7.40;78.49
71096;DHT22;58753;49.440;11.126;2023-02-12T16:14:44;7.31;78.54
71096;DHT22;58753;49.440;11.126;2023-02-12T16:17:37;7.23;78.64
71096;DHT22;58753;49.440;11.126;2023-02-12T16:22:41;7.10;79.19
71096;DHT22;58753;49.440;11.126;2023-02-12T16:25:16;7.04;79.28
71096;DHT22;58753;49.440;11.126;2023-02-12T16:28:00;6.97;79.30
71096;DHT22;58753;49.440;11.126;2023-02-12T16:30:28;6.90;79.45
71096;DHT22;58753;49.440;11.126;2023-02-12T16:32:55;6.80;79.54
71096;DHT22;58753;49.440;11.126;2023-02-12T16:35:32;6.72;79.67
71096;DHT22;58753;49.440;11.126;2023-02-12T16:40:30;6.49;80.01
71096;DHT22;58753;49.440;11.126;2023-02-12T16:42:58;6.38;80.04
71096;DHT22;58753;49.440;11.126;2023-02-12T16:50:35;6.26;81.12
71096;DHT22;58753;49.440;11.126;2023-02-12T16:53:21;6.18;81.18
71096;DHT22;58753;49.440;11.126;2023-02-12T16:55:47;6.11;81.35
71096;DHT22;58753;49.440;11.126;2023-02-12T16:58:13;6.05;81.77
71096;DHT22;58753;49.440;11.126;2023-02-12T17:00:38;5.98;81.75
71096;DHT22;58753;49.440;11.126;2023-02-12T17:03:04;5.89;81.84
71096;DHT22;58753;49.440;11.126;2023-02-12T17:05:29;5.84;82.10
71096;DHT22;58753;49.440;11.126;2023-02-12T17:07:54;5.78;82.23
71096;DHT22;58753;49.440;11.126;2023-02-12T17:10:20;5.69;82.33
71096;DHT22;58753;49.440;11.126;2023-02-12T17:12:47;5.60;82.41
71096;DHT22;58753;49.440;11.126;2023-02-12T17:15:26;5.54;82.51
71096;DHT22;58753;49.440;11.126;2023-02-12T17:17:52;5.49;82.72
71096;DHT22;58753;49.440;11.126;2023-02-12T17:20:18;5.43;82.88
71096;DHT22;58753;49.440;11.126;2023-02-12T17:22:48;5.37;82.90
71096;DHT22;58753;49.440;11.126;2023-02-12T17:25:14;5.30;82.96
71096;DHT22;58753;49.440;11.126;2023-02-12T17:27:39;5.26;83.17
71096;DHT22;58753;49.440;11.126;2023-02-12T17:30:05;5.18;83.18
71096;DHT22;58753;49.440;11.126;2023-02-12T17:32:31;5.13;83.29
71096;DHT22;58753;49.440;11.126;2023-02-12T17:34:56;5.09;83.34
71096;DHT22;58753;49.440;11.126;2023-02-12T17:37:22;5.04;83.51
71096;DHT22;58753;49.440;11.126;2023-02-12T17:39:49;4.98;83.58
71096;DHT22;58753;49.440;11.126;2023-02-12T17:42:15;4.98;83.75
71096;DHT22;58753;49.440;11.126;2023-02-12T17:44:40;4.92;83.88
71096;DHT22;58753;49.440;11.126;2023-02-12T17:47:06;4.88;84.25
71096;DHT22;58753;49.440;11.126;2023-02-12T17:49:31;4.89;84.22
71096;DHT22;58753;49.440;11.126;2023-02-12T17:51:57;4.88;84.28
71096;DHT22;58753;49.440;11.126;2023-02-12T17:54:23;4.84;84.41
71096;DHT22;58753;49.440;11.126;2023-02-12T17:56:48;4.79;84.42
71096;DHT22;58753;49.440;11.126;2023-02-12T17:59:14;4.74;84.48
71096;DHT22;58753;49.440;11.126;2023-02-12T18:01:39;4.68;84.59
71096;DHT22;58753;49.440;11.126;2023-02-12T18:04:05;4.65;84.69
71096;DHT22;58753;49.440;11.126;2023-02-12T18:06:30;4.61;84.67
71096;DHT22;58753;49.440;11.126;2023-02-12T18:08:57;4.60;84.71
71096;DHT22;58753;49.440;11.126;2023-02-12T18:11:23;4.55;84.85
71096;DHT22;58753;49.440;11.126;2023-02-12T18:13:56;4.57;84.88
71096;DHT22;58753;49.440;11.126;2023-02-12T18:16:23;4.53;85.00
71096;DHT22;58753;49.440;11.126;2023-02-12T18:18:49;4.54;85.01
71096;DHT22;58753;49.440;11.126;2023-02-12T18:21:15;4.50;85.07
71096;DHT22;58753;49.440;11.126;2023-02-12T18:23:42;4.51;85.14